Time;durP1;ratioP1;P1;durP2;ratioP2;P2;SDS_P1;SDS_P2;PMS_P1;PMS_P2;Temp;Humidity;BMP_temperature;BMP_pressure;BME280_temperature;BME280_humidity;BME280_pressure;Samples;Min_cycle;Max_cycle;Signal;HPM_P1;HPM_P2
2023/12/19 00:00:39;;;;;;;24.23;9.75;;;5.00;99.90;;;;;;4991927;28;20481;-66
2023/12/19 00:03:05;;;;;;;27.33;12.25;;;5.00;99.90;;;;;;4997546;28;20096;-66
2023/12/19 00:05:30;;;;;;;26.48;10.43;;;5.00;99.90;;;;;;4980371;28;20586;-66
2023/12/19 00:07:56;;;;;;;24.65;11.25;;;4.90;99.90;;;;;;4999136;28;20052;-66
2023/12/19 00:10:21;;;;;;;24.08;11.18;;;5.00;99.90;;;;;;4978536;28;20526;-66
2023/12/19 00:12:47;;;;;;;22.10;10.55;;;5.00;99.90;;;;;;4999293;28;20045;-66
2023/12/19 00:15:15;;;;;;;25.55;11.30;;;5.00;99.90;;;;;;4997417;28;20092;-66
2023/12/19 00:17:43;;;;;;;14.00;5.68;;;5.00;99.90;;;;;;4982294;28;20034;-68
2023/12/19 00:20:09;;;;;;;22.42;9.63;;;5.00;99.90;;;;;;4979959;28;20030;-68
2023/12/19 00:22:35;;;;;;;19.17;9.07;;;5.00;99.90;;;;;;4997894;28;20063;-71
2023/12/19 00:25:01;;;;;;;20.75;10.52;;;5.10;99.90;;;;;;4989593;28;20026;-68
2023/12/19 00:27:26;;;;;;;21.63;9.18;;;5.10;99.90;;;;;;4999247;28;20109;-68
2023/12/19 00:29:52;;;;;;;21.65;10.13;;;5.10;99.90;;;;;;4987602;28;20034;-68
2023/12/19 00:32:17;;;;;;;22.95;10.35;;;5.10;99.90;;;;;;5000000;28;20749;-68
2023/12/19 00:34:43;;;;;;;23.90;11.15;;;5.10;99.90;;;;;;4996376;28;20120;-68
2023/12/19 00:37:08;;;;;;;15.73;6.63;;;5.10;99.90;;;;;;4986066;28;20034;-68
2023/12/19 00:39:36;;;;;;;23.38;10.73;;;5.10;99.90;;;;;;5003373;28;20029;-68
2023/12/19 00:42:02;;;;;;;19.67;7.65;;;5.10;99.90;;;;;;4997610;28;20030;-68
2023/12/19 00:44:27;;;;;;;21.67;9.55;;;5.00;99.90;;;;;;5000494;28;20026;-68
2023/12/19 00:46:53;;;;;;;22.17;10.15;;;5.00;99.90;;;;;;4984222;28;20433;-68
2023/12/19 00:49:18;;;;;;;23.17;10.23;;;5.10;99.90;;;;;;4984590;28;20034;-68
2023/12/19 00:51:44;;;;;;;23.35;9.52;;;5.00;99.90;;;;;;4997965;28;20113;-68
2023/12/19 00:54:10;;;;;;;21.08;9.80;;;5.00;99.90;;;;;;4996742;28;20677;-68
2023/12/19 00:56:42;;;;;;;21.45;9.50;;;5.00;99.90;;;;;;4996905;28;20037;-68
2023/12/19 00:59:08;;;;;;;19.30;8.43;;;5.00;99.90;;;;;;4999871;28;20097;-68
2023/12/19 01:01:33;;;;;;;20.77;9.00;;;5.00;99.90;;;;;;4986611;28;20124;-68
2023/12/19 01:03:59;;;;;;;17.27;8.35;;;5.10;99.90;;;;;;4998448;28;20043;-68
2023/12/19 01:06:24;;;;;;;18.13;7.82;;;5.10;99.90;;;;;;5001150;28;20037;-68
2023/12/19 01:08:50;;;;;;;19.50;8.50;;;5.10;99.90;;;;;;4998538;28;20529;-69
2023/12/19 01:11:16;;;;;;;18.27;7.38;;;5.10;99.90;;;;;;5001685;28;20037;-68
2023/12/19 01:13:41;;;;;;;16.10;7.15;;;5.10;99.90;;;;;;4997623;28;20464;-68
2023/12/19 01:16:08;;;;;;;18.88;9.07;;;5.10;99.90;;;;;;4995769;28;20034;-68
2023/12/19 01:18:36;;;;;;;13.73;5.93;;;5.10;99.90;;;;;;4977291;28;20092;-68
2023/12/19 01:21:01;;;;;;;19.20;8.05;;;5.10;99.90;;;;;;4983050;28;20490;-68
2023/12/19 01:23:27;;;;;;;16.33;7.35;;;5.10;99.90;;;;;;4996098;28;20030;-68
2023/12/19 01:25:52;;;;;;;16.52;7.80;;;5.00;99.90;;;;;;4999105;28;20030;-66
2023/12/19 01:28:18;;;;;;;13.93;6.47;;;5.00;99.90;;;;;;4996487;28;20018;-66
2023/12/19 01:30:43;;;;;;;14.65;6.18;;;5.00;99.90;;;;;;4981975;28;20529;-66
2023/12/19 01:33:09;;;;;;;15.55;6.82;;;5.00;99.90;;;;;;4985802;28;20030;-66
2023/12/19 01:35:38;;;;;;;16.15;7.68;;;5.00;99.90;;;;;;4984270;28;20037;-66
2023/12/19 01:38:04;;;;;;;16.27;7.00;;;5.00;99.90;;;;;;4979647;28;20394;-66
2023/12/19 01:40:31;;;;;;;18.63;8.10;;;5.10;99.90;;;;;;4998166;28;20018;-66
2023/12/19 01:42:57;;;;;;;16.73;7.78;;;5.00;99.90;;;;;;4979852;28;20280;-66
2023/12/19 01:45:25;;;;;;;20.33;8.38;;;5.00;99.90;;;;;;5005994;28;20113;-66
2023/12/19 01:47:51;;;;;;;18.63;7.68;;;5.00;99.90;;;;;;4996717;28;20033;-66
2023/12/19 01:50:17;;;;;;;19.33;7.60;;;5.00;99.90;;;;;;4983146;28;20030;-66
2023/12/19 01:52:46;;;;;;;19.60;8.20;;;5.00;99.90;;;;;;4978709;28;20031;-66
2023/12/19 01:55:13;;;;;;;15.55;4.97;;;5.00;99.90;;;;;;4996837;28;20120;-66
2023/12/19 01:57:39;;;;;;;14.85;6.50;;;5.00;99.90;;;;;;4999481;28;20457;-66
2023/12/19 02:00:05;;;;;;;20.10;7.40;;;5.00;99.90;;;;;;4986539;28;20029;-66
2023/12/19 02:02:31;;;;;;;16.17;7.05;;;5.00;99.90;;;;;;4998855;28;20034;-66
2023/12/19 02:04:58;;;;;;;14.10;5.85;;;5.00;99.90;;;;;;4979834;28;20512;-66
2023/12/19 02:07:23;;;;;;;17.73;7.65;;;5.00;99.90;;;;;;4998118;28;20035;-66
2023/12/19 02:09:50;;;;;;;16.88;7.28;;;5.00;99.90;;;;;;4998090;28;20040;-66
2023/12/19 02:12:16;;;;;;;13.90;6.72;;;5.00;99.90;;;;;;4996419;28;20089;-66
2023/12/19 02:14:43;;;;;;;17.63;7.60;;;5.00;99.90;;;;;;4999471;28;20030;-66
2023/12/19 02:17:11;;;;;;;16.10;7.28;;;5.00;99.90;;;;;;4996727;28;20034;-66
2023/12/19 02:19:47;;;;;;;14.55;6.45;;;5.10;99.90;;;;;;4999930;28;20038;-66
2023/12/19 02:22:13;;;;;;;16.17;6.82;;;5.10;99.90;;;;;;4996812;28;20026;-66
2023/12/19 02:24:39;;;;;;;13.93;6.50;;;5.10;99.90;;;;;;4996738;28;20022;-66
2023/12/19 02:27:06;;;;;;;16.48;7.50;;;5.00;99.90;;;;;;4999501;28;20489;-66
2023/12/19 02:29:33;;;;;;;15.65;7.63;;;5.10;99.90;;;;;;4998026;28;20102;-66
2023/12/19 02:31:59;;;;;;;12.98;5.53;;;5.00;99.90;;;;;;4997070;28;20038;-66
2023/12/19 02:34:25;;;;;;;15.57;7.25;;;5.00;99.90;;;;;;4980749;28;20367;-66
2023/12/19 02:36:52;;;;;;;16.80;7.10;;;5.10;99.90;;;;;;4998100;28;20153;-68
2023/12/19 02:39:18;;;;;;;15.90;7.18;;;5.10;99.90;;;;;;4997622;28;20026;-68
2023/12/19 02:41:44;;;;;;;17.92;7.38;;;5.10;99.90;;;;;;4981734;28;20508;-68
2023/12/19 02:44:10;;;;;;;16.45;7.20;;;5.10;99.90;;;;;;4999682;28;20030;-68
2023/12/19 02:46:35;;;;;;;14.25;6.88;;;5.10;99.90;;;;;;5000426;28;20481;-68
2023/12/19 02:49:01;;;;;;;15.18;6.35;;;5.10;99.90;;;;;;4992000;28;20026;-68
2023/12/19 02:51:27;;;;;;;14.73;6.65;;;5.10;99.90;;;;;;4983976;28;20026;-68
2023/12/19 02:53:56;;;;;;;13.55;6.82;;;5.10;99.90;;;;;;4999324;28;20485;-68
2023/12/19 02:56:23;;;;;;;17.60;7.30;;;5.10;99.90;;;;;;4987862;28;20054;-68
2023/12/19 02:58:49;;;;;;;15.38;7.32;;;5.10;99.90;;;;;;4999257;28;20034;-68
2023/12/19 03:01:15;;;;;;;17.02;7.38;;;5.10;99.90;;;;;;5000589;28;20101;-68
2023/12/19 03:03:43;;;;;;;16.15;6.90;;;5.10;99.90;;;;;;5002307;28;20072;-68
2023/12/19 03:06:09;;;;;;;17.20;6.93;;;5.10;99.90;;;;;;4999332;28;20026;-68
2023/12/19 03:08:35;;;;;;;12.77;5.72;;;5.20;99.90;;;;;;4999621;28;20034;-68
2023/12/19 03:11:04;;;;;;;14.40;5.68;;;5.20;99.90;;;;;;5002196;28;20030;-68
2023/12/19 03:13:29;;;;;;;17.50;7.35;;;5.20;99.90;;;;;;5000053;28;20569;-68
2023/12/19 03:15:55;;;;;;;12.90;5.97;;;5.10;99.90;;;;;;5001079;28;20097;-68
2023/12/19 03:18:24;;;;;;;17.60;7.55;;;5.10;99.90;;;;;;4991548;28;20525;-68
2023/12/19 03:20:51;;;;;;;18.43;8.13;;;5.10;99.90;;;;;;5000449;28;20054;-68
2023/12/19 03:23:18;;;;;;;14.73;5.88;;;5.10;99.90;;;;;;5001638;28;20029;-68
2023/12/19 03:25:44;;;;;;;15.98;7.22;;;5.10;99.90;;;;;;4999425;28;20056;-68
2023/12/19 03:28:10;;;;;;;17.35;7.35;;;5.10;99.90;;;;;;5002933;28;20041;-68
2023/12/19 03:30:35;;;;;;;17.70;8.32;;;5.10;99.90;;;;;;5000661;28;20033;-68
2023/12/19 03:33:01;;;;;;;16.02;7.63;;;5.10;99.90;;;;;;4981153;28;20034;-68
2023/12/19 03:35:29;;;;;;;14.20;6.45;;;5.10;99.90;;;;;;5001910;28;20831;-68
2023/12/19 03:37:55;;;;;;;17.63;8.32;;;5.10;99.90;;;;;;4999235;28;20141;-68
2023/12/19 03:40:20;;;;;;;15.63;7.10;;;5.20;99.90;;;;;;4986014;28;20026;-68
2023/12/19 03:42:46;;;;;;;15.25;6.72;;;5.20;99.90;;;;;;5000592;28;20042;-68
2023/12/19 03:45:12;;;;;;;17.10;7.63;;;5.20;99.90;;;;;;4999904;28;20049;-68
2023/12/19 03:47:38;;;;;;;20.88;8.38;;;5.20;99.90;;;;;;5001606;28;20475;-66
2023/12/19 03:50:07;;;;;;;21.95;9.20;;;5.20;99.90;;;;;;5002034;28;20029;-66
2023/12/19 03:52:33;;;;;;;21.42;9.57;;;5.20;99.90;;;;;;4988470;28;20022;-66
2023/12/19 03:55:02;;;;;;;18.80;8.82;;;5.20;99.90;;;;;;5001482;28;20049;-66
2023/12/19 03:57:28;;;;;;;20.50;9.75;;;5.20;99.90;;;;;;5001406;28;20030;-66
2023/12/19 03:59:53;;;;;;;21.88;10.20;;;5.20;99.90;;;;;;4997042;28;20022;-66
2023/12/19 04:02:19;;;;;;;21.85;9.27;;;5.20;99.90;;;;;;5000731;28;20029;-66
2023/12/19 04:04:45;;;;;;;16.77;7.47;;;5.30;99.90;;;;;;5000086;28;20030;-66
2023/12/19 04:07:11;;;;;;;22.35;9.77;;;5.20;99.90;;;;;;4998497;28;20076;-66
2023/12/19 04:09:37;;;;;;;19.02;8.65;;;5.30;99.90;;;;;;5000918;28;20065;-66
2023/12/19 04:12:03;;;;;;;21.50;9.82;;;5.30;99.90;;;;;;4997495;28;20026;-66
2023/12/19 04:14:33;;;;;;;17.45;7.68;;;5.30;99.90;;;;;;4998008;28;20037;-66
2023/12/19 04:16:59;;;;;;;21.00;9.20;;;5.30;99.90;;;;;;5000817;28;20066;-66
2023/12/19 04:19:24;;;;;;;22.05;9.27;;;5.40;99.90;;;;;;4980969;28;20438;-66
2023/12/19 04:21:50;;;;;;;22.15;10.60;;;5.40;99.90;;;;;;5001634;28;20026;-66
2023/12/19 04:24:17;;;;;;;23.60;10.73;;;5.40;99.90;;;;;;5002505;28;20052;-66
2023/12/19 04:26:42;;;;;;;27.08;12.13;;;5.40;99.90;;;;;;4999504;28;20084;-66
2023/12/19 04:29:09;;;;;;;19.63;8.77;;;5.40;99.90;;;;;;4999077;28;20432;-67
2023/12/19 04:31:34;;;;;;;26.77;10.48;;;5.50;99.90;;;;;;5001099;28;20026;-66
2023/12/19 04:34:02;;;;;;;23.77;9.60;;;5.40;99.90;;;;;;4997241;28;20026;-66
2023/12/19 04:36:30;;;;;;;25.13;9.07;;;5.50;99.90;;;;;;4997640;28;20470;-66
2023/12/19 04:38:55;;;;;;;20.88;10.18;;;5.50;99.90;;;;;;5000573;28;20018;-66
2023/12/19 04:41:21;;;;;;;22.02;10.35;;;5.50;99.90;;;;;;4983695;28;20083;-66
2023/12/19 04:43:47;;;;;;;20.27;8.90;;;5.60;99.90;;;;;;4981119;28;20029;-66
2023/12/19 04:46:12;;;;;;;17.75;6.85;;;5.50;99.90;;;;;;4999984;28;20052;-66
2023/12/19 04:48:38;;;;;;;18.25;8.57;;;5.60;99.90;;;;;;4998807;28;20084;-66
2023/12/19 04:51:03;;;;;;;19.48;7.72;;;5.60;99.90;;;;;;5000332;28;20049;-66
2023/12/19 04:53:30;;;;;;;18.88;9.05;;;5.60;99.90;;;;;;5001170;28;20109;-66
2023/12/19 04:55:56;;;;;;;19.42;10.35;;;5.60;99.90;;;;;;4997911;28;20034;-67
2023/12/19 04:58:21;;;;;;;20.42;9.23;;;5.60;99.90;;;;;;5000785;28;20436;-67
2023/12/19 05:00:49;;;;;;;18.70;8.02;;;5.60;99.90;;;;;;4996523;28;20028;-68
2023/12/19 05:03:15;;;;;;;21.17;8.63;;;5.60;99.90;;;;;;4999846;28;20032;-68
2023/12/19 05:05:41;;;;;;;15.80;6.80;;;5.60;99.90;;;;;;5000736;28;20041;-68
2023/12/19 05:08:06;;;;;;;19.13;7.40;;;5.60;99.90;;;;;;4988538;28;20037;-68
2023/12/19 05:10:32;;;;;;;16.80;7.35;;;5.60;99.90;;;;;;4998039;28;20104;-68
2023/12/19 05:12:57;;;;;;;14.43;6.35;;;5.70;99.90;;;;;;5000230;28;20021;-68
2023/12/19 05:15:23;;;;;;;12.85;5.22;;;5.70;99.90;;;;;;4997424;28;20026;-68
2023/12/19 05:17:49;;;;;;;16.27;7.07;;;5.70;99.90;;;;;;4998272;28;20034;-68
2023/12/19 05:20:14;;;;;;;14.20;6.80;;;5.70;99.90;;;;;;4982218;28;20060;-68
2023/12/19 05:22:40;;;;;;;16.85;7.18;;;5.70;99.90;;;;;;4998174;28;20033;-68
2023/12/19 05:25:06;;;;;;;15.43;6.45;;;5.60;99.90;;;;;;4996949;28;20026;-68
2023/12/19 05:27:32;;;;;;;13.90;6.20;;;5.60;99.90;;;;;;4998862;28;20048;-68
2023/12/19 05:29:57;;;;;;;13.90;5.85;;;5.70;99.90;;;;;;4987596;28;20117;-68
2023/12/19 05:32:23;;;;;;;13.85;6.22;;;5.70;99.90;;;;;;4991774;28;20065;-68
2023/12/19 05:34:49;;;;;;;12.85;5.75;;;5.70;99.90;;;;;;4994535;28;20409;-68
2023/12/19 05:37:15;;;;;;;11.65;4.93;;;5.70;99.90;;;;;;4989861;28;20030;-67
2023/12/19 05:39:43;;;;;;;11.07;5.40;;;5.70;99.90;;;;;;4977252;28;20054;-67
2023/12/19 05:42:09;;;;;;;14.68;5.65;;;5.50;99.90;;;;;;4996406;28;20081;-67
2023/12/19 05:44:34;;;;;;;10.30;4.40;;;5.70;99.90;;;;;;4980265;28;20025;-68
2023/12/19 05:47:00;;;;;;;11.35;4.10;;;5.70;99.90;;;;;;4995196;28;20458;-68
2023/12/19 05:49:26;;;;;;;11.93;5.50;;;5.70;99.90;;;;;;4996210;28;20030;-68
2023/12/19 05:51:51;;;;;;;12.93;6.07;;;5.80;99.90;;;;;;4981604;28;20113;-68
2023/12/19 05:54:19;;;;;;;9.82;4.00;;;5.70;99.90;;;;;;4995761;28;20331;-67
2023/12/19 05:56:45;;;;;;;12.23;4.30;;;5.80;99.90;;;;;;4993192;28;20073;-68
2023/12/19 05:59:10;;;;;;;12.70;4.93;;;5.80;99.90;;;;;;4995813;28;20023;-68
2023/12/19 06:01:42;;;;;;;9.73;4.43;;;5.80;99.90;;;;;;4980146;28;20123;-68
2023/12/19 06:04:08;;;;;;;11.50;4.47;;;5.80;99.90;;;;;;4989744;28;20029;-68
2023/12/19 06:06:37;;;;;;;14.13;6.20;;;5.90;99.90;;;;;;4991957;28;20477;-66
2023/12/19 06:09:05;;;;;;;13.82;5.30;;;6.00;99.90;;;;;;4994162;28;20044;-66
2023/12/19 06:11:30;;;;;;;12.02;4.82;;;5.90;99.90;;;;;;4991407;28;20018;-66
2023/12/19 06:13:56;;;;;;;12.40;6.40;;;5.90;99.90;;;;;;4992140;28;20040;-66
2023/12/19 06:16:21;;;;;;;9.07;4.43;;;5.90;99.90;;;;;;4981351;28;20022;-66
2023/12/19 06:18:47;;;;;;;11.02;4.85;;;5.80;99.90;;;;;;4982803;28;20416;-66
2023/12/19 06:21:13;;;;;;;12.43;5.10;;;6.60;99.90;;;;;;4976010;28;20030;-66
2023/12/19 06:23:39;;;;;;;10.60;4.70;;;5.80;99.90;;;;;;4978656;28;20089;-66
2023/12/19 06:26:06;;;;;;;11.48;4.95;;;5.80;99.90;;;;;;4974933;28;20031;-66
2023/12/19 06:28:32;;;;;;;14.55;6.38;;;5.80;99.90;;;;;;4982509;28;20046;-66
2023/12/19 06:31:01;;;;;;;13.45;5.68;;;5.80;99.90;;;;;;4976192;28;20035;-66
2023/12/19 06:33:27;;;;;;;13.13;5.70;;;5.80;99.90;;;;;;4974689;28;20054;-66
2023/12/19 06:35:52;;;;;;;11.40;5.35;;;5.80;99.90;;;;;;4979967;28;20496;-66
2023/12/19 06:38:18;;;;;;;13.18;5.70;;;5.80;99.90;;;;;;4980803;28;20038;-68
2023/12/19 06:40:43;;;;;;;11.82;5.15;;;5.80;99.90;;;;;;4985145;28;20102;-66
2023/12/19 06:43:11;;;;;;;13.57;6.28;;;5.90;99.90;;;;;;4981269;28;20031;-66
2023/12/19 06:45:37;;;;;;;12.45;4.88;;;6.00;99.90;;;;;;4985442;28;20022;-66
2023/12/19 06:48:03;;;;;;;12.00;5.30;;;6.10;99.90;;;;;;4977817;28;20098;-66
2023/12/19 06:50:29;;;;;;;17.33;7.30;;;6.00;99.90;;;;;;4982358;28;20105;-66
2023/12/19 06:52:54;;;;;;;9.65;3.90;;;6.10;99.90;;;;;;4980790;28;20125;-66
2023/12/19 06:55:21;;;;;;;12.18;6.15;;;6.10;99.90;;;;;;4987769;28;20026;-66
2023/12/19 06:57:47;;;;;;;12.35;5.88;;;6.10;99.90;;;;;;4985322;28;20030;-66
2023/12/19 07:00:13;;;;;;;13.60;5.55;;;6.10;99.90;;;;;;4991693;28;20061;-65
2023/12/19 07:02:38;;;;;;;15.32;6.78;;;6.00;99.90;;;;;;4989627;28;20029;-66
2023/12/19 07:05:04;;;;;;;16.52;7.85;;;6.00;99.90;;;;;;4975735;28;20486;-66
2023/12/19 07:07:30;;;;;;;15.60;6.63;;;6.00;99.90;;;;;;4971809;28;20045;-66
2023/12/19 07:09:56;;;;;;;14.07;6.63;;;5.90;99.90;;;;;;4982848;28;20038;-66
2023/12/19 07:12:21;;;;;;;11.15;5.10;;;5.90;99.90;;;;;;4978940;28;20027;-66
2023/12/19 07:14:47;;;;;;;12.80;6.15;;;5.90;99.90;;;;;;4981287;28;20073;-66
2023/12/19 07:17:13;;;;;;;12.95;5.82;;;5.90;99.90;;;;;;4981130;28;20030;-66
2023/12/19 07:19:41;;;;;;;12.93;6.60;;;5.80;99.90;;;;;;4980850;28;20185;-66
2023/12/19 07:22:06;;;;;;;15.63;6.72;;;5.80;99.90;;;;;;4986884;28;20049;-65
2023/12/19 07:24:32;;;;;;;12.40;5.72;;;5.80;99.90;;;;;;4980169;28;20027;-66
2023/12/19 07:26:58;;;;;;;14.10;5.85;;;5.80;99.90;;;;;;4982398;28;20565;-66
2023/12/19 07:29:24;;;;;;;14.43;6.60;;;5.80;99.90;;;;;;4986472;28;20026;-66
2023/12/19 07:31:51;;;;;;;15.90;6.43;;;5.80;99.90;;;;;;4976729;28;20183;-66
2023/12/19 07:34:17;;;;;;;11.90;6.03;;;5.80;99.90;;;;;;4977841;28;20323;-66
2023/12/19 07:36:43;;;;;;;16.17;6.97;;;5.80;99.90;;;;;;4975535;28;20093;-66
2023/12/19 07:39:10;;;;;;;15.48;5.65;;;5.90;99.90;;;;;;4985478;28;20053;-66
2023/12/19 07:41:35;;;;;;;17.15;7.10;;;5.90;99.90;;;;;;4987778;28;20025;-66
2023/12/19 07:44:02;;;;;;;14.02;6.53;;;5.90;99.90;;;;;;4987825;28;20401;-66
2023/12/19 07:46:27;;;;;;;15.88;6.05;;;5.90;99.90;;;;;;4985754;28;20030;-66
2023/12/19 07:48:53;;;;;;;13.93;6.35;;;5.90;99.90;;;;;;4978218;28;20096;-66
2023/12/19 07:51:23;;;;;;;13.10;5.78;;;6.00;99.90;;;;;;4983140;28;20045;-66
2023/12/19 07:53:49;;;;;;;13.07;5.40;;;6.00;99.90;;;;;;4984450;28;20026;-66
2023/12/19 07:56:15;;;;;;;12.02;4.40;;;6.10;99.90;;;;;;4982220;28;20467;-66
2023/12/19 07:58:40;;;;;;;9.48;3.83;;;6.10;99.90;;;;;;4985049;28;20033;-66
2023/12/19 08:01:11;;;;;;;11.40;4.80;;;6.10;99.90;;;;;;4986500;28;20061;-66
2023/12/19 08:03:37;;;;;;;16.63;4.65;;;6.10;99.90;;;;;;4973200;28;20038;-66
2023/12/19 08:06:03;;;;;;;10.73;5.45;;;6.10;99.90;;;;;;4975042;28;20088;-66
2023/12/19 08:08:29;;;;;;;10.40;4.30;;;6.20;99.90;;;;;;4977582;28;20026;-66
2023/12/19 08:10:54;;;;;;;9.00;3.80;;;6.20;99.90;;;;;;4980064;28;20100;-66
2023/12/19 08:13:20;;;;;;;10.02;4.65;;;6.20;99.90;;;;;;4984898;28;20038;-67
2023/12/19 08:15:47;;;;;;;10.55;4.50;;;6.20;99.90;;;;;;4981713;28;20026;-66
2023/12/19 08:18:13;;;;;;;10.85;4.63;;;6.20;99.90;;;;;;4983907;28;20084;-66
2023/12/19 08:20:40;;;;;;;10.05;4.05;;;6.30;99.90;;;;;;4978229;28;20030;-66
2023/12/19 08:23:05;;;;;;;10.73;5.07;;;6.30;99.90;;;;;;4981790;28;20083;-66
2023/12/19 08:25:33;;;;;;;10.30;4.80;;;6.30;99.90;;;;;;4979472;28;20030;-66
2023/12/19 08:27:59;;;;;;;10.63;4.70;;;6.30;99.90;;;;;;5001961;28;20133;-69
2023/12/19 08:30:27;;;;;;;11.25;4.93;;;6.30;99.90;;;;;;4997049;28;20124;-69
2023/12/19 08:32:54;;;;;;;13.50;5.35;;;6.30;99.90;;;;;;5001736;28;20081;-68
2023/12/19 08:35:20;;;;;;;9.82;4.55;;;6.30;99.90;;;;;;4995762;28;20046;-69
2023/12/19 08:37:46;;;;;;;11.57;5.35;;;6.40;99.90;;;;;;4999098;28;20125;-69
2023/12/19 08:40:12;;;;;;;11.77;5.18;;;6.30;99.90;;;;;;5002379;28;20105;-69
2023/12/19 08:42:38;;;;;;;10.23;4.07;;;6.30;99.90;;;;;;4983706;28;20019;-69
2023/12/19 08:45:04;;;;;;;11.30;4.50;;;6.40;99.90;;;;;;4997236;28;20018;-69
2023/12/19 08:47:30;;;;;;;10.38;4.25;;;6.30;99.90;;;;;;4999798;28;20038;-69
2023/12/19 08:49:58;;;;;;;8.70;3.42;;;6.40;99.90;;;;;;4983066;28;20026;-69
2023/12/19 08:52:24;;;;;;;10.38;4.53;;;6.40;99.90;;;;;;5004017;28;20097;-69
2023/12/19 08:54:53;;;;;;;7.43;2.85;;;6.40;99.90;;;;;;4981952;28;20145;-69
2023/12/19 08:57:18;;;;;;;9.25;3.97;;;6.40;99.90;;;;;;5000925;28;20112;-69
2023/12/19 08:59:44;;;;;;;9.07;3.50;;;6.40;99.90;;;;;;4996350;28;20113;-68
2023/12/19 09:02:10;;;;;;;10.60;3.55;;;6.40;99.90;;;;;;4997571;28;20052;-69
2023/12/19 09:04:36;;;;;;;9.93;4.40;;;6.40;99.90;;;;;;4983724;28;20030;-69
2023/12/19 09:07:05;;;;;;;10.25;4.65;;;6.40;99.90;;;;;;4986144;28;20028;-69
2023/12/19 09:09:31;;;;;;;10.52;4.75;;;6.40;99.90;;;;;;4993775;28;20048;-68
2023/12/19 09:11:56;;;;;;;11.23;5.07;;;6.40;99.90;;;;;;4996206;28;20026;-69
2023/12/19 09:14:22;;;;;;;11.75;4.80;;;6.40;99.90;;;;;;4998972;28;20033;-68
2023/12/19 09:16:49;;;;;;;11.65;5.15;;;6.40;99.90;;;;;;4999652;28;20065;-69
2023/12/19 09:19:15;;;;;;;13.55;5.15;;;6.40;99.90;;;;;;5000934;28;20065;-68
2023/12/19 09:21:41;;;;;;;12.45;5.70;;;6.40;99.90;;;;;;5000136;28;20476;-68
2023/12/19 09:24:07;;;;;;;16.60;7.38;;;6.40;99.90;;;;;;4985541;28;20025;-68
2023/12/19 09:26:33;;;;;;;14.25;6.53;;;6.30;99.90;;;;;;4997074;28;20034;-68
2023/12/19 09:28:59;;;;;;;14.90;6.82;;;6.30;99.90;;;;;;4997089;28;20057;-68
2023/12/19 09:31:24;;;;;;;17.05;6.82;;;6.30;99.90;;;;;;5004025;28;20105;-67
2023/12/19 09:33:50;;;;;;;16.60;7.00;;;6.30;99.90;;;;;;4982508;28;20137;-67
2023/12/19 09:36:24;;;;;;;16.63;6.53;;;6.30;99.90;;;;;;5000042;28;20034;-67
2023/12/19 09:38:50;;;;;;;16.10;7.63;;;6.30;99.90;;;;;;5001644;28;20033;-67
2023/12/19 09:41:16;;;;;;;18.13;7.60;;;6.20;99.90;;;;;;5000632;28;20022;-67
2023/12/19 09:43:42;;;;;;;16.83;7.55;;;6.20;99.90;;;;;;4978188;28;20034;-68
2023/12/19 09:46:10;;;;;;;19.40;6.57;;;6.30;99.90;;;;;;4998401;28;20480;-67
2023/12/19 09:48:36;;;;;;;15.85;6.72;;;6.30;99.90;;;;;;5004782;28;20026;-68
2023/12/19 09:51:04;;;;;;;15.40;6.85;;;6.20;99.90;;;;;;4998974;28;20033;-67
2023/12/19 09:53:34;;;;;;;15.90;7.38;;;6.30;99.90;;;;;;5003217;28;20555;-67
2023/12/19 09:56:01;;;;;;;17.42;8.05;;;6.20;99.90;;;;;;4981529;28;20029;-67
2023/12/19 09:58:30;;;;;;;14.60;6.70;;;6.30;99.90;;;;;;4996012;28;20482;-68
2023/12/19 10:00:59;;;;;;;13.88;6.68;;;6.30;99.90;;;;;;4983790;28;20050;-67
2023/12/19 10:03:28;;;;;;;13.43;6.38;;;6.30;99.90;;;;;;5005246;28;20156;-67
2023/12/19 10:05:54;;;;;;;13.63;5.80;;;6.30;99.90;;;;;;5002927;28;20121;-67
2023/12/19 10:08:21;;;;;;;16.98;7.45;;;6.30;99.90;;;;;;5007048;28;20112;-67
2023/12/19 10:10:55;;;;;;;13.68;6.75;;;6.30;99.90;;;;;;5005036;28;20114;-68
2023/12/19 10:13:35;;;;;;;9.68;3.90;;;6.30;99.90;;;;;;5005289;28;20374;-67
2023/12/19 10:16:11;;;;;;;12.18;5.82;;;6.30;99.90;;;;;;5006361;28;20032;-67
2023/12/19 10:18:42;;;;;;;11.98;5.50;;;6.30;99.90;;;;;;4986778;28;20038;-67
2023/12/19 10:21:19;;;;;;;12.88;5.82;;;6.30;99.90;;;;;;4999202;28;20026;-67
2023/12/19 10:23:45;;;;;;;11.80;5.57;;;6.30;99.90;;;;;;4987078;28;20033;-68
2023/12/19 10:26:11;;;;;;;12.57;6.15;;;6.30;99.90;;;;;;4989291;28;20026;-67
2023/12/19 10:28:37;;;;;;;15.82;6.00;;;6.30;99.90;;;;;;5003224;28;20390;-67
2023/12/19 10:31:06;;;;;;;15.98;5.65;;;6.30;99.90;;;;;;4994105;28;20033;-67
2023/12/19 10:33:48;;;;;;;11.05;5.00;;;6.30;99.90;;;;;;4985813;28;20084;-67
2023/12/19 10:36:26;;;;;;;9.45;4.13;;;6.30;99.90;;;;;;5005473;28;20030;-68
2023/12/19 10:38:53;;;;;;;13.98;5.70;;;6.30;99.90;;;;;;5002542;28;20097;-68
2023/12/19 10:41:26;;;;;;;8.75;3.80;;;6.30;99.90;;;;;;4994851;28;20029;-68
2023/12/19 10:43:55;;;;;;;10.73;4.43;;;6.20;99.90;;;;;;5002170;28;20026;-68
2023/12/19 10:46:24;;;;;;;10.30;4.88;;;6.30;99.90;;;;;;5001589;28;20030;-68
2023/12/19 10:48:52;;;;;;;10.87;4.63;;;6.30;99.90;;;;;;4987882;28;20042;-68
2023/12/19 10:51:28;;;;;;;10.75;5.03;;;6.30;99.90;;;;;;5004983;28;20054;-68
2023/12/19 10:54:00;;;;;;;13.55;6.18;;;6.30;99.90;;;;;;4984586;28;20080;-69
2023/12/19 10:56:34;;;;;;;11.82;5.70;;;6.30;99.90;;;;;;5001142;28;20092;-68
2023/12/19 10:59:16;;;;;;;13.73;4.90;;;6.30;99.90;;;;;;5001697;28;20493;-68
2023/12/19 11:01:43;;;;;;;13.18;5.97;;;6.30;99.90;;;;;;5002530;28;20022;-68
2023/12/19 11:04:19;;;;;;;12.00;5.38;;;6.30;99.90;;;;;;4989558;28;20034;-69
2023/12/19 11:06:53;;;;;;;12.57;5.80;;;6.30;99.90;;;;;;5003349;28;20088;-66
2023/12/19 11:09:29;;;;;;;11.07;5.15;;;6.30;99.90;;;;;;4999286;28;20045;-66
2023/12/19 11:11:56;;;;;;;10.48;4.50;;;6.40;99.90;;;;;;4988244;28;20026;-66
2023/12/19 11:14:24;;;;;;;12.10;5.28;;;6.40;99.90;;;;;;4986894;28;20080;-66
2023/12/19 11:17:37;;;;;;;12.93;4.82;;;6.30;99.90;;;;;;5005337;28;20485;-66
2023/12/19 11:20:06;;;;;;;14.38;6.15;;;6.30;99.90;;;;;;4924058;29;20047;-67
2023/12/19 11:22:58;;;;;;;12.07;5.50;;;6.30;99.90;;;;;;4985016;28;20039;-66
2023/12/19 11:25:37;;;;;;;11.50;5.13;;;6.30;99.90;;;;;;5001476;28;20101;-68
2023/12/19 11:28:04;;;;;;;13.10;5.55;;;6.30;99.90;;;;;;4995151;28;20034;-66
2023/12/19 11:30:48;;;;;;;12.75;5.70;;;6.30;99.90;;;;;;4988334;28;20136;-67
2023/12/19 11:33:29;;;;;;;10.43;4.97;;;6.30;99.90;;;;;;5005529;28;20069;-68
2023/12/19 11:35:55;;;;;;;8.70;3.88;;;6.30;99.90;;;;;;5005465;28;20021;-70
2023/12/19 11:38:25;;;;;;;11.10;4.65;;;6.30;99.90;;;;;;5007056;28;20134;-67
2023/12/19 11:40:53;;;;;;;9.88;4.20;;;6.30;99.90;;;;;;5001095;28;20130;-69
2023/12/19 11:43:28;;;;;;;9.98;4.88;;;6.30;99.90;;;;;;5000258;28;20354;-67
2023/12/19 11:45:55;;;;;;;9.45;4.15;;;6.30;99.90;;;;;;5000041;28;20018;-68
2023/12/19 11:48:50;;;;;;;10.65;4.63;;;6.40;99.90;;;;;;5001308;28;20032;-67
2023/12/19 11:51:42;;;;;;;8.13;3.70;;;6.40;99.90;;;;;;4997270;28;20092;-67
2023/12/19 11:54:10;;;;;;;8.93;4.07;;;6.40;99.90;;;;;;4999300;28;20030;-67
2023/12/19 11:56:38;;;;;;;8.50;3.03;;;6.40;99.90;;;;;;4999378;28;20097;-67
2023/12/19 11:59:03;;;;;;;8.82;3.97;;;6.40;99.90;;;;;;4994469;28;20106;-67
2023/12/19 12:01:41;;;;;;;9.85;4.03;;;6.40;99.90;;;;;;4981494;28;20112;-66
2023/12/19 12:04:08;;;;;;;7.97;2.90;;;6.40;99.90;;;;;;4985650;28;20026;-66
2023/12/19 12:06:35;;;;;;;8.32;3.55;;;6.40;99.90;;;;;;4997824;28;20027;-66
2023/12/19 12:09:03;;;;;;;8.55;3.80;;;6.40;99.90;;;;;;4985316;28;20018;-67
2023/12/19 12:11:29;;;;;;;7.90;3.10;;;6.40;99.90;;;;;;5004240;28;20030;-64
2023/12/19 12:14:03;;;;;;;6.30;2.42;;;6.40;99.90;;;;;;5005815;28;20040;-64
2023/12/19 12:16:40;;;;;;;8.23;3.75;;;6.40;99.90;;;;;;4978830;28;20141;-64
2023/12/19 12:19:19;;;;;;;7.85;3.10;;;6.40;99.90;;;;;;4994232;28;20064;-64
2023/12/19 12:21:49;;;;;;;7.45;2.80;;;6.40;99.90;;;;;;4984407;28;20036;-64
2023/12/19 12:24:26;;;;;;;7.50;2.63;;;6.40;99.90;;;;;;4993340;28;20057;-64
2023/12/19 12:27:06;;;;;;;7.25;2.90;;;6.50;99.90;;;;;;5003583;28;20469;-64
2023/12/19 12:29:36;;;;;;;7.85;2.80;;;6.50;99.90;;;;;;5003595;28;20541;-64
2023/12/19 12:32:03;;;;;;;7.50;2.72;;;6.50;99.90;;;;;;4999382;28;20036;-64
2023/12/19 12:34:32;;;;;;;8.70;2.78;;;6.50;99.90;;;;;;5006082;28;20128;-64
2023/12/19 12:36:58;;;;;;;8.25;2.78;;;6.60;99.90;;;;;;5002973;28;20113;-64
2023/12/19 12:39:24;;;;;;;5.93;2.25;;;6.60;99.90;;;;;;5004028;28;20100;-64
2023/12/19 12:41:49;;;;;;;9.77;3.38;;;6.60;99.90;;;;;;4985507;28;20036;-64
2023/12/19 12:44:15;;;;;;;6.60;2.83;;;6.60;99.90;;;;;;5001643;28;20024;-65
2023/12/19 12:46:45;;;;;;;6.38;2.40;;;6.60;99.90;;;;;;5000159;28;20026;-63
2023/12/19 12:49:17;;;;;;;6.20;2.28;;;6.70;99.90;;;;;;4999593;28;20037;-65